Time;durP1;ratioP1;P1;durP2;ratioP2;P2;SDS_P1;SDS_P2;PMS_P1;PMS_P2;Temp;Humidity;BMP_temperature;BMP_pressure;BME280_temperature;BME280_humidity;BME280_pressure;Samples;Min_cycle;Max_cycle;Signal;HPM_P1;HPM_P2
2023/07/26 00:01:47;;;;;;;5.00;3.93;;;;;;;;;;5033394;28;20211;-38
2023/07/26 00:04:14;;;;;;;4.50;4.10;;;;;;;;;;5033090;28;20211;-37
2023/07/26 00:06:41;;;;;;;4.10;3.43;;;;;;;;;;5018484;28;20210;-35
2023/07/26 00:09:09;;;;;;;5.33;3.80;;;;;;;;;;5031906;28;20607;-37
2023/07/26 00:11:36;;;;;;;4.70;4.10;;;;;;;;;;5029011;28;20260;-36
2023/07/26 00:14:04;;;;;;;4.00;3.60;;;;;;;;;;5026239;28;20214;-38
2023/07/26 00:16:31;;;;;;;3.87;3.57;;;;;;;;;;5032223;28;20213;-39
2023/07/26 00:18:58;;;;;;;4.97;3.97;;;;;;;;;;5032758;28;20230;-34
2023/07/26 00:21:25;;;;;;;6.87;3.50;;;;;;;;;;5022497;28;20207;-33
2023/07/26 00:23:53;;;;;;;4.13;3.80;;;;;;;;;;5029762;28;20238;-37
2023/07/26 00:26:20;;;;;;;4.20;3.80;;;;;;;;;;5023058;28;20211;-36
2023/07/26 00:28:47;;;;;;;3.60;3.30;;;;;;;;;;5015292;28;20260;-34
2023/07/26 00:31:15;;;;;;;3.47;3.17;;;;;;;;;;5026430;28;20217;-34
2023/07/26 00:33:43;;;;;;;3.93;3.47;;;;;;;;;;5031687;28;20221;-36
2023/07/26 00:36:10;;;;;;;4.07;3.73;;;;;;;;;;5025991;28;20726;-38
2023/07/26 00:38:38;;;;;;;5.00;4.27;;;;;;;;;;5027679;28;20313;-39
2023/07/26 00:41:06;;;;;;;2.90;2.70;;;;;;;;;;5026780;28;20214;-35
2023/07/26 00:43:33;;;;;;;4.17;3.77;;;;;;;;;;5027133;28;20226;-36
2023/07/26 00:46:01;;;;;;;5.07;3.90;;;;;;;;;;5032050;28;20256;-40
2023/07/26 00:48:29;;;;;;;4.60;3.90;;;;;;;;;;5034675;28;20301;-34
2023/07/26 00:50:57;;;;;;;4.97;4.13;;;;;;;;;;5022675;28;20217;-37
2023/07/26 00:53:24;;;;;;;5.17;3.60;;;;;;;;;;5025200;28;20221;-36
2023/07/26 00:55:53;;;;;;;4.10;3.73;;;;;;;;;;5027063;28;20722;-37
2023/07/26 00:58:20;;;;;;;3.70;3.40;;;;;;;;;;5025539;28;20231;-34
2023/07/26 01:00:48;;;;;;;4.67;3.60;;;;;;;;;;5026790;28;20289;-34
2023/07/26 01:03:15;;;;;;;4.07;3.67;;;;;;;;;;5019855;28;20233;-34
2023/07/26 01:05:51;;;;;;;4.40;4.00;;;;;;;;;;5031310;28;20230;-36
2023/07/26 01:08:22;;;;;;;4.17;3.77;;;;;;;;;;5028887;28;20212;-35
2023/07/26 01:10:51;;;;;;;7.63;3.53;;;;;;;;;;5017535;28;20321;-36
2023/07/26 01:13:22;;;;;;;4.70;4.30;;;;;;;;;;5026755;28;20206;-32
2023/07/26 01:15:50;;;;;;;3.53;3.23;;;;;;;;;;5032238;28;20226;-32
2023/07/26 01:18:18;;;;;;;6.33;3.57;;;;;;;;;;5034446;28;20304;-36
2023/07/26 01:20:47;;;;;;;4.27;3.47;;;;;;;;;;5022250;28;20211;-33
2023/07/26 01:23:15;;;;;;;3.83;3.40;;;;;;;;;;5031515;28;20207;-37
2023/07/26 01:25:42;;;;;;;4.17;3.27;;;;;;;;;;5028280;28;20612;-38
2023/07/26 01:28:09;;;;;;;5.67;4.40;;;;;;;;;;5025442;28;20286;-34
2023/07/26 01:30:37;;;;;;;3.70;3.40;;;;;;;;;;5027340;28;20531;-35
2023/07/26 01:33:07;;;;;;;4.73;4.10;;;;;;;;;;5031416;28;20207;-40
2023/07/26 01:35:35;;;;;;;5.43;3.83;;;;;;;;;;5022716;28;20207;-36
2023/07/26 01:38:02;;;;;;;4.20;3.77;;;;;;;;;;5028789;28;20272;-34
2023/07/26 01:40:31;;;;;;;4.37;3.97;;;;;;;;;;5031344;28;20543;-36
2023/07/26 01:42:58;;;;;;;5.20;3.60;;;;;;;;;;5019692;28;20221;-41
2023/07/26 01:45:25;;;;;;;4.73;4.23;;;;;;;;;;5024887;28;20573;-37
2023/07/26 01:47:54;;;;;;;3.43;3.07;;;;;;;;;;5030573;28;20203;-33
2023/07/26 01:50:21;;;;;;;4.37;3.97;;;;;;;;;;5025805;28;20238;-33
2023/07/26 01:52:49;;;;;;;7.13;4.50;;;;;;;;;;5028711;28;20212;-33
2023/07/26 01:55:16;;;;;;;6.20;4.77;;;;;;;;;;5031263;28;20242;-33
2023/07/26 01:57:44;;;;;;;3.97;3.67;;;;;;;;;;5018162;28;20305;-37
2023/07/26 02:00:12;;;;;;;3.73;3.33;;;;;;;;;;5021828;28;20242;-37
2023/07/26 02:02:39;;;;;;;6.17;4.83;;;;;;;;;;5120370;22;20297;-25
2023/07/26 02:05:07;;;;;;;5.40;4.30;;;;;;;;;;5011381;28;20208;-27
2023/07/26 02:07:35;;;;;;;6.80;4.67;;;;;;;;;;5023531;28;20285;-25
2023/07/26 02:10:02;;;;;;;6.03;4.90;;;;;;;;;;5004489;28;20250;-31
2023/07/26 02:12:29;;;;;;;7.83;5.50;;;;;;;;;;4996488;28;20653;-29
2023/07/26 02:14:59;;;;;;;8.30;5.50;;;;;;;;;;5001025;28;20209;-32
2023/07/26 02:17:26;;;;;;;8.40;5.93;;;;;;;;;;5018414;28;20198;-31
2023/07/26 02:19:53;;;;;;;7.20;5.30;;;;;;;;;;5022349;28;20219;-29
2023/07/26 02:22:20;;;;;;;7.53;6.17;;;;;;;;;;4998414;28;20203;-32
2023/07/26 02:24:47;;;;;;;7.43;5.37;;;;;;;;;;5004613;28;20207;-29
2023/07/26 02:27:17;;;;;;;5.40;4.70;;;;;;;;;;4989550;28;20211;-31
2023/07/26 02:29:45;;;;;;;5.83;4.60;;;;;;;;;;5002275;28;20234;-31
2023/07/26 02:32:13;;;;;;;7.80;4.30;;;;;;;;;;5011238;28;20345;-28
2023/07/26 02:34:40;;;;;;;5.90;4.63;;;;;;;;;;5007011;28;20207;-31
2023/07/26 02:37:07;;;;;;;6.63;5.50;;;;;;;;;;4995484;28;20204;-29
2023/07/26 02:39:35;;;;;;;5.27;4.77;;;;;;;;;;5006245;28;20236;-31
2023/07/26 02:42:02;;;;;;;5.67;5.07;;;;;;;;;;5000389;28;20217;-31
2023/07/26 02:44:29;;;;;;;5.20;4.63;;;;;;;;;;5011338;28;20211;-30
2023/07/26 02:46:56;;;;;;;7.07;4.60;;;;;;;;;;5000656;28;20588;-28
2023/07/26 02:49:24;;;;;;;5.40;4.20;;;;;;;;;;5024064;28;20218;-32
2023/07/26 02:51:51;;;;;;;8.00;5.30;;;;;;;;;;5003054;28;20203;-31
2023/07/26 02:54:19;;;;;;;4.83;4.43;;;;;;;;;;4996647;28;20224;-33
2023/07/26 02:56:46;;;;;;;6.37;4.60;;;;;;;;;;5008059;28;20203;-30
2023/07/26 02:59:13;;;;;;;5.80;5.27;;;;;;;;;;5006818;28;20303;-31
2023/07/26 03:01:40;;;;;;;6.77;4.33;;;;;;;;;;5003037;28;20229;-33
2023/07/26 03:04:07;;;;;;;4.67;4.07;;;;;;;;;;5030057;28;20197;-29
2023/07/26 03:06:36;;;;;;;7.83;4.50;;;;;;;;;;5007057;28;20203;-31
2023/07/26 03:09:03;;;;;;;4.20;3.70;;;;;;;;;;5000527;28;20230;-31
2023/07/26 03:11:30;;;;;;;4.80;4.07;;;;;;;;;;4991448;28;20219;-29
2023/07/26 03:13:57;;;;;;;4.93;4.40;;;;;;;;;;4993895;28;20211;-28
2023/07/26 03:16:24;;;;;;;4.67;4.23;;;;;;;;;;5004745;28;20214;-27
2023/07/26 03:18:51;;;;;;;5.07;3.13;;;;;;;;;;5016325;28;20318;-29
2023/07/26 03:21:19;;;;;;;5.00;4.33;;;;;;;;;;5007502;28;20203;-29
2023/07/26 03:23:47;;;;;;;4.63;4.10;;;;;;;;;;5002038;28;20207;-29
2023/07/26 03:26:14;;;;;;;6.53;4.33;;;;;;;;;;5014828;28;20208;-28
2023/07/26 03:28:42;;;;;;;7.53;3.93;;;;;;;;;;4997433;28;20228;-29
2023/07/26 03:31:09;;;;;;;4.50;4.10;;;;;;;;;;5005347;28;20653;-29
2023/07/26 03:33:36;;;;;;;3.73;3.43;;;;;;;;;;5016185;28;20208;-28
2023/07/26 03:36:03;;;;;;;4.63;3.43;;;;;;;;;;5015181;28;20208;-29
2023/07/26 03:38:30;;;;;;;3.90;3.23;;;;;;;;;;5001987;28;20238;-27
2023/07/26 03:40:59;;;;;;;4.87;3.63;;;;;;;;;;5005948;28;20219;-27
2023/07/26 03:43:26;;;;;;;4.73;3.37;;;;;;;;;;5001503;28;20670;-29
2023/07/26 03:45:53;;;;;;;3.43;3.17;;;;;;;;;;4996821;28;20200;-27
2023/07/26 03:48:20;;;;;;;3.97;3.57;;;;;;;;;;5023467;28;20668;-26
2023/07/26 03:50:58;;;;;;;4.70;3.20;;;;;;;;;;5005722;28;20208;-27
2023/07/26 03:53:26;;;;;;;3.83;3.23;;;;;;;;;;4998184;28;20199;-31
2023/07/26 03:55:53;;;;;;;6.70;3.23;;;;;;;;;;5018745;28;20202;-27
2023/07/26 03:58:21;;;;;;;4.27;3.10;;;;;;;;;;4992746;28;20300;-25
2023/07/26 04:00:48;;;;;;;3.07;2.77;;;;;;;;;;5001320;28;20228;-28
2023/07/26 04:03:17;;;;;;;3.03;2.70;;;;;;;;;;4994130;28;20226;-29
2023/07/26 04:05:44;;;;;;;2.90;2.70;;;;;;;;;;4997175;28;20229;-26
2023/07/26 04:08:11;;;;;;;4.23;2.87;;;;;;;;;;4998186;28;20199;-25
2023/07/26 04:10:38;;;;;;;2.70;2.50;;;;;;;;;;4998796;28;20204;-34
2023/07/26 04:13:10;;;;;;;3.50;2.57;;;;;;;;;;4995359;28;20218;-29
2023/07/26 04:15:40;;;;;;;4.20;2.63;;;;;;;;;;5010412;28;20214;-27
2023/07/26 04:18:07;;;;;;;3.17;2.97;;;;;;;;;;5010190;28;20314;-29
2023/07/26 04:20:35;;;;;;;3.37;2.80;;;;;;;;;;5006593;28;20228;-29
2023/07/26 04:23:02;;;;;;;2.87;2.63;;;;;;;;;;5002524;28;20207;-28
2023/07/26 04:25:29;;;;;;;2.80;2.70;;;;;;;;;;5023197;28;20211;-26
2023/07/26 04:27:56;;;;;;;2.90;2.70;;;;;;;;;;5007800;28;20896;-28
2023/07/26 04:30:23;;;;;;;2.50;2.30;;;;;;;;;;4995994;28;20220;-29
2023/07/26 04:32:52;;;;;;;3.43;2.60;;;;;;;;;;4996170;28;20674;-27
2023/07/26 04:35:19;;;;;;;2.80;2.60;;;;;;;;;;4997579;28;20219;-27
2023/07/26 04:37:46;;;;;;;3.17;2.90;;;;;;;;;;4996580;28;20222;-29
2023/07/26 04:40:14;;;;;;;3.00;2.40;;;;;;;;;;5002102;28;20220;-29
2023/07/26 04:42:41;;;;;;;2.93;2.63;;;;;;;;;;4999813;28;20302;-28
2023/07/26 04:45:08;;;;;;;2.63;2.43;;;;;;;;;;4995017;28;20294;-28
2023/07/26 04:47:36;;;;;;;3.13;2.60;;;;;;;;;;5009700;28;20207;-27
2023/07/26 04:50:04;;;;;;;3.30;2.43;;;;;;;;;;5015123;28;20227;-28
2023/07/26 04:52:33;;;;;;;3.90;2.53;;;;;;;;;;5006028;28;20211;-26
2023/07/26 04:55:00;;;;;;;3.43;2.80;;;;;;;;;;4999609;28;20217;-29
2023/07/26 04:57:27;;;;;;;2.63;2.37;;;;;;;;;;5004961;28;20207;-25
2023/07/26 04:59:54;;;;;;;2.40;2.20;;;;;;;;;;4997300;28;20224;-29
2023/07/26 05:02:21;;;;;;;2.87;2.60;;;;;;;;;;5013933;28;20665;-28
2023/07/26 05:04:48;;;;;;;2.37;2.20;;;;;;;;;;5014372;28;20203;-39
2023/07/26 05:07:17;;;;;;;4.03;2.50;;;;;;;;;;5005532;28;20207;-30
2023/07/26 05:09:44;;;;;;;4.33;2.53;;;;;;;;;;5012936;28;20223;-25
2023/07/26 05:12:11;;;;;;;2.90;2.50;;;;;;;;;;5003661;28;20212;-26
2023/07/26 05:14:41;;;;;;;2.80;2.60;;;;;;;;;;5006789;28;20242;-28
2023/07/26 05:17:08;;;;;;;2.50;2.30;;;;;;;;;;5001155;28;20682;-32
2023/07/26 05:19:35;;;;;;;2.50;2.30;;;;;;;;;;4993752;28;20236;-34
2023/07/26 05:22:02;;;;;;;2.27;2.17;;;;;;;;;;4999037;28;20216;-40
2023/07/26 05:24:31;;;;;;;2.70;2.50;;;;;;;;;;4998828;28;20208;-40
2023/07/26 05:26:59;;;;;;;2.20;2.00;;;;;;;;;;4996297;28;20218;-35
2023/07/26 05:29:26;;;;;;;4.13;2.40;;;;;;;;;;5018894;28;20713;-37
2023/07/26 05:31:55;;;;;;;3.43;2.37;;;;;;;;;;5003822;28;20210;-39
2023/07/26 05:34:22;;;;;;;2.83;2.50;;;;;;;;;;4994032;28;20215;-35
2023/07/26 05:36:49;;;;;;;3.90;2.17;;;;;;;;;;5002228;28;20211;-32
2023/07/26 05:39:16;;;;;;;2.53;2.30;;;;;;;;;;5001573;28;20228;-31
2023/07/26 05:41:44;;;;;;;2.40;2.20;;;;;;;;;;4994673;28;20220;-41
2023/07/26 05:44:12;;;;;;;2.50;2.30;;;;;;;;;;5002131;28;20208;-34
2023/07/26 05:46:39;;;;;;;2.10;2.00;;;;;;;;;;5009680;28;20564;-37
2023/07/26 05:49:06;;;;;;;3.80;2.40;;;;;;;;;;5014371;28;20277;-36
2023/07/26 05:51:33;;;;;;;3.50;2.33;;;;;;;;;;5007230;28;20211;-32
2023/07/26 05:54:00;;;;;;;2.33;2.13;;;;;;;;;;5002083;28;20402;-35
2023/07/26 05:56:27;;;;;;;2.37;2.27;;;;;;;;;;5002415;28;20207;-33
2023/07/26 05:58:56;;;;;;;2.70;2.20;;;;;;;;;;5005033;28;20234;-35
2023/07/26 06:01:23;;;;;;;3.80;2.37;;;;;;;;;;4997893;28;20237;-38
2023/07/26 06:03:50;;;;;;;2.63;2.43;;;;;;;;;;5013286;28;20195;-33
2023/07/26 06:06:18;;;;;;;2.87;2.10;;;;;;;;;;5002855;28;20208;-41
2023/07/26 06:08:45;;;;;;;2.50;2.30;;;;;;;;;;5009188;28;20803;-37
2023/07/26 06:11:12;;;;;;;2.83;2.13;;;;;;;;;;4999025;28;20219;-33
2023/07/26 06:13:39;;;;;;;2.53;2.23;;;;;;;;;;5000874;28;20527;-38
2023/07/26 06:16:08;;;;;;;2.00;1.90;;;;;;;;;;5003491;28;20227;-35
2023/07/26 06:18:35;;;;;;;2.80;2.60;;;;;;;;;;5013259;28;20896;-33
2023/07/26 06:21:02;;;;;;;3.80;2.20;;;;;;;;;;5004249;28;20224;-36
2023/07/26 06:23:29;;;;;;;3.10;2.50;;;;;;;;;;4997753;28;20212;-39
2023/07/26 06:25:56;;;;;;;2.77;2.47;;;;;;;;;;4998510;28;20199;-34
2023/07/26 06:28:24;;;;;;;3.00;2.60;;;;;;;;;;4997301;28;20228;-39
2023/07/26 06:30:51;;;;;;;3.10;2.73;;;;;;;;;;5001842;28;20207;-37
2023/07/26 06:33:19;;;;;;;2.90;2.70;;;;;;;;;;5016985;28;20557;-37
2023/07/26 06:35:46;;;;;;;3.00;2.30;;;;;;;;;;5011465;28;20207;-31
2023/07/26 06:38:14;;;;;;;3.87;2.97;;;;;;;;;;5009140;28;20299;-39
2023/07/26 06:40:41;;;;;;;3.33;2.70;;;;;;;;;;4991822;28;20283;-38
2023/07/26 06:43:08;;;;;;;7.90;3.50;;;;;;;;;;5003178;28;20204;-35
2023/07/26 06:45:35;;;;;;;2.67;2.47;;;;;;;;;;5012245;28;20210;-37
2023/07/26 06:48:02;;;;;;;3.13;2.83;;;;;;;;;;4993422;28;20212;-34
2023/07/26 06:50:31;;;;;;;3.80;2.80;;;;;;;;;;4994190;28;20554;-35
2023/07/26 06:52:58;;;;;;;2.83;2.63;;;;;;;;;;5007005;28;20210;-41
2023/07/26 06:55:25;;;;;;;3.33;3.03;;;;;;;;;;5015087;28;20261;-37
2023/07/26 06:57:54;;;;;;;3.63;2.53;;;;;;;;;;4997111;28;20200;-30
2023/07/26 07:00:21;;;;;;;3.13;2.83;;;;;;;;;;5002885;28;20309;-40
2023/07/26 07:02:48;;;;;;;3.43;2.60;;;;;;;;;;5013114;28;20211;-34
2023/07/26 07:05:15;;;;;;;2.80;2.60;;;;;;;;;;5012531;28;20208;-37
2023/07/26 07:07:44;;;;;;;4.13;3.27;;;;;;;;;;4998080;28;20208;-34
2023/07/26 07:10:11;;;;;;;3.03;2.83;;;;;;;;;;5006700;28;20215;-31
2023/07/26 07:12:38;;;;;;;3.37;2.80;;;;;;;;;;5000075;28;20212;-32
2023/07/26 07:15:05;;;;;;;4.33;2.80;;;;;;;;;;5003933;28;20222;-40
2023/07/26 07:17:33;;;;;;;3.73;2.63;;;;;;;;;;4995926;28;20200;-37
2023/07/26 07:20:00;;;;;;;3.80;2.83;;;;;;;;;;4999478;28;20231;-35
2023/07/26 07:22:27;;;;;;;3.43;2.57;;;;;;;;;;5000491;28;20212;-40
2023/07/26 07:24:56;;;;;;;4.83;3.07;;;;;;;;;;5009734;28;20238;-33
2023/07/26 07:27:24;;;;;;;2.97;2.33;;;;;;;;;;5008522;28;20278;-35
2023/07/26 07:29:52;;;;;;;3.67;2.00;;;;;;;;;;5010033;28;20282;-32
2023/07/26 07:32:19;;;;;;;7.20;2.40;;;;;;;;;;5004973;28;20207;-31
2023/07/26 07:34:46;;;;;;;2.43;2.07;;;;;;;;;;5005759;28;20214;-38
2023/07/26 07:37:13;;;;;;;3.40;2.33;;;;;;;;;;4998592;28;20234;-36
2023/07/26 07:39:40;;;;;;;3.77;2.57;;;;;;;;;;5005079;28;20247;-34
2023/07/26 07:42:09;;;;;;;2.17;1.93;;;;;;;;;;5017375;28;20204;-33
2023/07/26 07:44:36;;;;;;;1.83;1.73;;;;;;;;;;5008716;28;20199;-37
2023/07/26 07:47:04;;;;;;;2.60;2.40;;;;;;;;;;5007303;28;20208;-37
2023/07/26 07:49:31;;;;;;;4.17;2.13;;;;;;;;;;5004739;28;20238;-32
2023/07/26 07:51:58;;;;;;;3.67;1.80;;;;;;;;;;5008215;28;20207;-36
2023/07/26 07:54:34;;;;;;;4.50;2.27;;;;;;;;;;5017018;28;20230;-34
2023/07/26 07:57:01;;;;;;;2.00;1.83;;;;;;;;;;5012864;28;20755;-32
2023/07/26 07:59:30;;;;;;;5.10;2.20;;;;;;;;;;4995020;28;20709;-38
2023/07/26 08:01:57;;;;;;;3.47;2.00;;;;;;;;;;5011608;28;20274;-38
2023/07/26 08:04:24;;;;;;;3.70;1.90;;;;;;;;;;5010061;28;20257;-39
2023/07/26 08:06:51;;;;;;;3.77;2.33;;;;;;;;;;5002944;28;20275;-38
2023/07/26 08:09:19;;;;;;;3.70;1.90;;;;;;;;;;5011699;28;20544;-32
2023/07/26 08:11:46;;;;;;;2.03;1.83;;;;;;;;;;5005192;28;20238;-35
2023/07/26 08:14:13;;;;;;;3.23;1.90;;;;;;;;;;4999718;28;20215;-36
2023/07/26 08:16:49;;;;;;;4.63;2.10;;;;;;;;;;5007070;28;20223;-30
2023/07/26 08:19:16;;;;;;;2.77;1.93;;;;;;;;;;5012263;28;20326;-31
2023/07/26 08:21:44;;;;;;;2.57;2.10;;;;;;;;;;5006742;28;20310;-37
2023/07/26 08:24:11;;;;;;;3.00;1.70;;;;;;;;;;5009052;28;20292;-37
2023/07/26 08:26:39;;;;;;;2.93;2.00;;;;;;;;;;4998755;28;20592;-36
2023/07/26 08:29:06;;;;;;;4.43;2.00;;;;;;;;;;4992768;28;20244;-39
2023/07/26 08:31:33;;;;;;;4.40;1.97;;;;;;;;;;5009171;28;20210;-33
2023/07/26 08:34:05;;;;;;;2.67;2.47;;;;;;;;;;5008469;28;20210;-33
2023/07/26 08:36:32;;;;;;;2.00;1.90;;;;;;;;;;5003651;28;20211;-38
2023/07/26 08:38:59;;;;;;;2.20;1.90;;;;;;;;;;5000177;28;20228;-40
2023/07/26 08:41:27;;;;;;;2.00;1.77;;;;;;;;;;5007340;28;20219;-36
2023/07/26 08:43:56;;;;;;;5.03;2.73;;;;;;;;;;5008171;28;20532;-36
2023/07/26 08:46:23;;;;;;;11.30;2.97;;;;;;;;;;5010124;28;20286;-37
2023/07/26 08:48:51;;;;;;;1.83;1.73;;;;;;;;;;5011124;28;20232;-33
2023/07/26 08:51:20;;;;;;;5.80;1.47;;;;;;;;;;5002603;28;20294;-38
2023/07/26 08:53:56;;;;;;;2.03;1.67;;;;;;;;;;5013876;28;20290;-38
2023/07/26 08:56:23;;;;;;;4.10;1.73;;;;;;;;;;5010635;28;20204;-35
2023/07/26 08:58:51;;;;;;;1.57;1.40;;;;;;;;;;5005205;28;20735;-37
2023/07/26 09:01:28;;;;;;;1.27;0.97;;;;;;;;;;5003186;28;20310;-35
2023/07/26 09:03:55;;;;;;;2.60;1.20;;;;;;;;;;5001748;28;20211;-38
2023/07/26 09:06:24;;;;;;;2.13;1.10;;;;;;;;;;5009287;28;20277;-33
2023/07/26 09:08:53;;;;;;;1.00;1.00;;;;;;;;;;5007520;28;20231;-40
2023/07/26 09:11:23;;;;;;;1.03;0.80;;;;;;;;;;5009490;28;20219;-38
2023/07/26 09:13:56;;;;;;;4.33;1.20;;;;;;;;;;5009863;28;20203;-32
2023/07/26 09:16:24;;;;;;;0.80;0.80;;;;;;;;;;5005266;28;20208;-31
2023/07/26 09:18:58;;;;;;;3.03;0.90;;;;;;;;;;5013482;28;20229;-41
2023/07/26 09:21:28;;;;;;;0.70;0.70;;;;;;;;;;5008589;28;20312;-36
2023/07/26 09:23:55;;;;;;;0.60;0.60;;;;;;;;;;5006619;28;20211;-33
2023/07/26 09:26:34;;;;;;;0.70;0.70;;;;;;;;;;5006328;28;20277;-37
2023/07/26 09:29:01;;;;;;;1.40;0.90;;;;;;;;;;5002195;28;20250;-35
2023/07/26 09:31:32;;;;;;;1.63;0.97;;;;;;;;;;5010434;28;20195;-40
2023/07/26 09:33:59;;;;;;;0.80;0.80;;;;;;;;;;5013258;28;20207;-36
2023/07/26 09:36:26;;;;;;;1.13;1.00;;;;;;;;;;5002552;28;20283;-36
2023/07/26 09:38:55;;;;;;;1.53;1.43;;;;;;;;;;5006504;28;20317;-39
2023/07/26 09:41:23;;;;;;;1.30;0.70;;;;;;;;;;4996263;28;20229;-36
2023/07/26 09:43:51;;;;;;;1.97;1.13;;;;;;;;;;5001855;28;20208;-30
2023/07/26 09:46:25;;;;;;;2.50;1.00;;;;;;;;;;4997801;28;20204;-35
2023/07/26 09:48:59;;;;;;;0.73;0.73;;;;;;;;;;5008411;28;20246;-33
2023/07/26 09:51:28;;;;;;;1.33;0.80;;;;;;;;;;5009028;28;20203;-37
2023/07/26 09:54:05;;;;;;;1.60;0.67;;;;;;;;;;5003674;28;20207;-35
2023/07/26 09:56:34;;;;;;;1.50;0.50;;;;;;;;;;5015236;28;20665;-32
2023/07/26 09:59:01;;;;;;;0.60;0.60;;;;;;;;;;5003012;28;20227;-36
2023/07/26 10:01:30;;;;;;;0.80;0.60;;;;;;;;;;5007137;28;20223;-34
2023/07/26 10:04:02;;;;;;;0.60;0.60;;;;;;;;;;5013010;28;20211;-35
2023/07/26 10:06:30;;;;;;;0.87;0.70;;;;;;;;;;5004258;28;20262;-34
2023/07/26 10:08:58;;;;;;;0.70;0.50;;;;;;;;;;4994853;28;20242;-35
2023/07/26 10:11:26;;;;;;;0.60;0.60;;;;;;;;;;5012869;28;20226;-29
2023/07/26 10:13:54;;;;;;;0.63;0.60;;;;;;;;;;5001889;28;20298;-37
2023/07/26 10:16:21;;;;;;;1.13;0.73;;;;;;;;;;5007260;28;20214;-34
2023/07/26 10:18:49;;;;;;;0.77;0.60;;;;;;;;;;4996823;28;20219;-38
2023/07/26 10:21:18;;;;;;;0.67;0.67;;;;;;;;;;5006370;28;20448;-33
2023/07/26 10:23:46;;;;;;;0.60;0.60;;;;;;;;;;5008530;28;20203;-39
2023/07/26 10:26:13;;;;;;;0.90;0.90;;;;;;;;;;4991142;28;20688;-36
2023/07/26 10:28:43;;;;;;;0.70;0.70;;;;;;;;;;5012599;28;20226;-36
2023/07/26 10:31:10;;;;;;;1.40;0.80;;;;;;;;;;5000905;28;20210;-36
2023/07/26 10:33:44;;;;;;;0.70;0.70;;;;;;;;;;5011464;28;20262;-34
2023/07/26 10:36:13;;;;;;;0.60;0.60;;;;;;;;;;5000677;28;20237;-34
2023/07/26 10:38:40;;;;;;;1.70;0.90;;;;;;;;;;5009337;28;20231;-39
2023/07/26 10:41:24;;;;;;;0.60;0.60;;;;;;;;;;5005985;28;20231;-31
2023/07/26 10:44:02;;;;;;;1.50;0.70;;;;;;;;;;5002037;28;20238;-35
2023/07/26 10:46:31;;;;;;;1.50;0.80;;;;;;;;;;5009434;28;20211;-34
2023/07/26 10:48:58;;;;;;;2.30;0.90;;;;;;;;;;5012928;28;20223;-34
2023/07/26 10:51:27;;;;;;;0.87;0.87;;;;;;;;;;5007279;28;20214;-31
2023/07/26 10:53:54;;;;;;;0.90;0.90;;;;;;;;;;5010892;28;20207;-35
2023/07/26 10:56:23;;;;;;;1.70;0.70;;;;;;;;;;5007624;28;20633;-39
2023/07/26 10:59:19;;;;;;;2.97;1.00;;;;;;;;;;5007316;28;20238;-31
2023/07/26 11:01:46;;;;;;;0.90;0.80;;;;;;;;;;5006399;28;20219;-36
2023/07/26 11:04:14;;;;;;;0.90;0.80;;;;;;;;;;5012715;28;20221;-39
2023/07/26 11:06:51;;;;;;;1.43;1.00;;;;;;;;;;5004194;28;20278;-33
2023/07/26 11:09:24;;;;;;;1.10;1.10;;;;;;;;;;5007686;28;20222;-35
2023/07/26 11:11:58;;;;;;;1.97;1.17;;;;;;;;;;5006527;28;20199;-32
2023/07/26 11:14:27;;;;;;;0.80;0.80;;;;;;;;;;5009901;28;20321;-36
2023/07/26 11:16:54;;;;;;;0.70;0.70;;;;;;;;;;5016076;28;20203;-37
2023/07/26 11:19:21;;;;;;;1.53;1.20;;;;;;;;;;5006652;28;20231;-38
2023/07/26 11:21:49;;;;;;;0.90;0.80;;;;;;;;;;5007461;28;20219;-36
2023/07/26 11:24:16;;;;;;;0.90;0.90;;;;;;;;;;5005167;28;20212;-39
2023/07/26 11:26:50;;;;;;;1.13;1.07;;;;;;;;;;5006520;28;20205;-39
2023/07/26 11:29:17;;;;;;;1.60;1.00;;;;;;;;;;5004803;28;20254;-41
2023/07/26 11:31:49;;;;;;;1.00;1.00;;;;;;;;;;5007926;28;20196;-35
2023/07/26 11:34:18;;;;;;;0.87;0.77;;;;;;;;;;5012505;28;20299;-37
2023/07/26 11:36:45;;;;;;;1.00;0.90;;;;;;;;;;5006192;28;20225;-36
2023/07/26 11:39:19;;;;;;;1.00;0.90;;;;;;;;;;5015195;28;20227;-35
2023/07/26 11:41:46;;;;;;;0.87;0.87;;;;;;;;;;5010276;28;20227;-29
2023/07/26 11:44:14;;;;;;;1.03;1.03;;;;;;;;;;4999619;28;20204;-33
2023/07/26 11:46:43;;;;;;;1.00;1.00;;;;;;;;;;5014817;28;20286;-36
2023/07/26 11:49:13;;;;;;;1.10;1.00;;;;;;;;;;5016591;28;20230;-33
2023/07/26 11:51:40;;;;;;;0.80;0.73;;;;;;;;;;5007439;28;20200;-31
2023/07/26 11:54:13;;;;;;;1.03;0.83;;;;;;;;;;5007298;28;20233;-37
2023/07/26 11:56:41;;;;;;;1.47;1.00;;;;;;;;;;5014426;28;20257;-30
2023/07/26 11:59:10;;;;;;;0.93;0.87;;;;;;;;;;5006525;28;20243;-37
2023/07/26 12:01:38;;;;;;;1.30;1.20;;;;;;;;;;5010546;28;20215;-37
2023/07/26 12:04:14;;;;;;;2.10;1.20;;;;;;;;;;5015088;28;20211;-30
2023/07/26 12:06:44;;;;;;;2.70;1.20;;;;;;;;;;5004144;28;20199;-38
2023/07/26 12:09:11;;;;;;;1.20;1.10;;;;;;;;;;5006876;28;20227;-35
2023/07/26 12:11:39;;;;;;;1.37;1.27;;;;;;;;;;5013327;28;20203;-30
2023/07/26 12:14:07;;;;;;;1.10;1.10;;;;;;;;;;5012255;28;20203;-33
2023/07/26 12:16:35;;;;;;;1.67;1.20;;;;;;;;;;5002553;28;20216;-36
2023/07/26 12:19:03;;;;;;;1.57;1.30;;;;;;;;;;5013853;28;20229;-38
2023/07/26 12:21:33;;;;;;;1.40;1.30;;;;;;;;;;5005986;28;20224;-32
2023/07/26 12:24:03;;;;;;;1.03;1.03;;;;;;;;;;5011080;28;20199;-35
2023/07/26 12:26:31;;;;;;;2.03;1.40;;;;;;;;;;5007379;28;20613;-32
2023/07/26 12:29:07;;;;;;;1.70;1.13;;;;;;;;;;5004080;28;20251;-31
2023/07/26 12:31:36;;;;;;;3.43;1.80;;;;;;;;;;5006796;28;20198;-36
2023/07/26 12:34:04;;;;;;;1.87;1.50;;;;;;;;;;5010017;28;20626;-30
2023/07/26 12:36:46;;;;;;;1.43;1.33;;;;;;;;;;5003927;28;20204;-36
2023/07/26 12:39:15;;;;;;;1.50;1.40;;;;;;;;;;5014198;28;20670;-30
2023/07/26 12:41:43;;;;;;;1.60;1.37;;;;;;;;;;5004641;28;20224;-35
2023/07/26 12:44:10;;;;;;;1.57;1.47;;;;;;;;;;5001410;28;20234;-34
2023/07/26 12:46:46;;;;;;;1.40;1.30;;;;;;;;;;5011149;28;20201;-33
2023/07/26 12:49:14;;;;;;;2.20;1.50;;;;;;;;;;5009723;28;20219;-37
2023/07/26 12:51:43;;;;;;;1.20;1.10;;;;;;;;;;5010308;28;20201;-33
2023/07/26 12:54:12;;;;;;;1.70;1.43;;;;;;;;;;5006417;28;20214;-33
2023/07/26 12:56:39;;;;;;;1.10;1.07;;;;;;;;;;5009728;28;20281;-36
2023/07/26 12:59:07;;;;;;;1.10;1.00;;;;;;;;;;5005852;28;20261;-36
2023/07/26 13:01:41;;;;;;;1.40;1.23;;;;;;;;;;5005930;28;20251;-38
2023/07/26 13:04:08;;;;;;;2.90;1.50;;;;;;;;;;5011977;28;20213;-36
2023/07/26 13:06:36;;;;;;;3.07;1.50;;;;;;;;;;5000766;28;20212;-33
2023/07/26 13:09:05;;;;;;;2.00;1.10;;;;;;;;;;5008652;28;20327;-40
2023/07/26 13:11:32;;;;;;;2.07;1.47;;;;;;;;;;4999232;28;20220;-36
2023/07/26 13:14:01;;;;;;;1.43;1.30;;;;;;;;;;5000026;28;20241;-32
2023/07/26 13:16:29;;;;;;;2.50;1.33;;;;;;;;;;5013524;28;20287;-38
2023/07/26 13:18:56;;;;;;;1.50;1.30;;;;;;;;;;5009038;28;20238;-35
2023/07/26 13:21:23;;;;;;;2.80;1.37;;;;;;;;;;5009083;28;20212;-34
2023/07/26 13:23:50;;;;;;;10.53;1.40;;;;;;;;;;5004279;28;20230;-36
2023/07/26 13:26:37;;;;;;;1.83;1.50;;;;;;;;;;5001679;28;20265;-33
2023/07/26 13:29:04;;;;;;;2.47;1.37;;;;;;;;;;5004099;28;20228;-37
2023/07/26 13:31:31;;;;;;;1.40;1.30;;;;;;;;;;5013215;28;20287;-37
2023/07/26 13:33:58;;;;;;;4.20;1.77;;;;;;;;;;5012474;28;20219;-33
2023/07/26 13:36:25;;;;;;;2.03;1.60;;;;;;;;;;5003476;28;20199;-35
2023/07/26 13:38:52;;;;;;;2.73;1.53;;;;;;;;;;5009888;28;20227;-39
2023/07/26 13:41:20;;;;;;;2.37;1.70;;;;;;;;;;5002210;28;20291;-36
2023/07/26 13:43:48;;;;;;;1.80;1.60;;;;;;;;;;5009621;28;20231;-35
2023/07/26 13:46:15;;;;;;;2.30;1.70;;;;;;;;;;5002145;28;20411;-37
2023/07/26 13:48:42;;;;;;;2.43;1.80;;;;;;;;;;5006264;28;20232;-36
2023/07/26 13:51:16;;;;;;;2.07;1.60;;;;;;;;;;5004586;28;20210;-32
2023/07/26 13:53:43;;;;;;;2.33;1.47;;;;;;;;;;5009122;28;20195;-34
2023/07/26 13:56:10;;;;;;;1.60;1.50;;;;;;;;;;5010133;28;20538;-36
2023/07/26 13:58:37;;;;;;;3.13;2.10;;;;;;;;;;5007689;28;20577;-32
2023/07/26 14:01:06;;;;;;;2.37;2.17;;;;;;;;;;5011832;28;20218;-39
2023/07/26 14:04:08;;;;;;;2.50;2.23;;;;;;;;;;5008172;28;20223;-33
2023/07/26 14:06:35;;;;;;;1.70;1.60;;;;;;;;;;5000034;28;20213;-34
2023/07/26 14:09:02;;;;;;;3.77;2.00;;;;;;;;;;5010621;28;20258;-35
2023/07/26 14:11:30;;;;;;;1.73;1.63;;;;;;;;;;4999394;28;20314;-33
2023/07/26 14:13:58;;;;;;;1.60;1.50;;;;;;;;;;5007437;28;20203;-36
2023/07/26 14:16:26;;;;;;;1.83;1.43;;;;;;;;;;5004656;28;20254;-40
2023/07/26 14:18:59;;;;;;;1.90;1.27;;;;;;;;;;5007427;28;20240;-39
2023/07/26 14:21:27;;;;;;;1.70;1.60;;;;;;;;;;5001454;28;20296;-35
2023/07/26 14:23:54;;;;;;;1.70;1.60;;;;;;;;;;5002342;28;20317;-36
2023/07/26 14:26:21;;;;;;;1.70;1.40;;;;;;;;;;4996985;28;20504;-38
2023/07/26 14:28:48;;;;;;;3.77;1.63;;;;;;;;;;5003708;28;20315;-38
2023/07/26 14:31:15;;;;;;;3.90;1.77;;;;;;;;;;5001386;28;20212;-33
2023/07/26 14:33:44;;;;;;;1.70;1.60;;;;;;;;;;5008017;28;20203;-37
2023/07/26 14:36:11;;;;;;;1.60;1.40;;;;;;;;;;5011703;28;20203;-36
2023/07/26 14:38:38;;;;;;;2.57;2.03;;;;;;;;;;5014672;28;20226;-34
2023/07/26 14:41:07;;;;;;;1.77;1.67;;;;;;;;;;5001760;28;20225;-34
2023/07/26 14:43:34;;;;;;;4.17;1.70;;;;;;;;;;5009014;28;20322;-36
2023/07/26 14:46:01;;;;;;;3.10;1.70;;;;;;;;;;5008948;28;20207;-40
2023/07/26 14:48:28;;;;;;;2.10;1.90;;;;;;;;;;5012752;28;20231;-34
2023/07/26 14:50:56;;;;;;;2.53;1.73;;;;;;;;;;5003853;28;20213;-35